sensor_id;sensor_type;location;lat;lon;timestamp;P1;durP1;ratioP1;P2;durP2;ratioP2
32146;SDS011;32190;49.112;8.598;2023-06-26T00:03:30;1.40;;;1.30;;
32146;SDS011;32190;49.112;8.598;2023-06-26T00:09:22;1.60;;;1.50;;
32146;SDS011;32190;49.112;8.598;2023-06-26T00:15:13;1.40;;;1.35;;
32146;SDS011;32190;49.112;8.598;2023-06-26T00:21:04;1.33;;;1.23;;
32146;SDS011;32190;49.112;8.598;2023-06-26T00:26:54;1.50;;;1.40;;
32146;SDS011;32190;49.112;8.598;2023-06-26T00:32:45;1.50;;;1.42;;
32146;SDS011;32190;49.112;8.598;2023-06-26T00:38:35;1.20;;;1.20;;
32146;SDS011;32190;49.112;8.598;2023-06-26T00:44:26;2.08;;;1.98;;
32146;SDS011;32190;49.112;8.598;2023-06-26T00:50:17;1.65;;;1.55;;
32146;SDS011;32190;49.112;8.598;2023-06-26T00:56:08;2.08;;;1.98;;
32146;SDS011;32190;49.112;8.598;2023-06-26T01:01:59;1.60;;;1.50;;
32146;SDS011;32190;49.112;8.598;2023-06-26T01:07:50;1.80;;;1.70;;
32146;SDS011;32190;49.112;8.598;2023-06-26T01:13:42;1.65;;;1.55;;
32146;SDS011;32190;49.112;8.598;2023-06-26T01:19:36;4.13;;;1.63;;
32146;SDS011;32190;49.112;8.598;2023-06-26T01:31:34;1.63;;;1.52;;
32146;SDS011;32190;49.112;8.598;2023-06-26T01:37:25;1.70;;;1.60;;
32146;SDS011;32190;49.112;8.598;2023-06-26T01:43:19;1.70;;;1.60;;
32146;SDS011;32190;49.112;8.598;2023-06-26T01:49:21;1.70;;;1.60;;
32146;SDS011;32190;49.112;8.598;2023-06-26T01:55:38;2.05;;;1.95;;
32146;SDS011;32190;49.112;8.598;2023-06-26T02:01:35;1.77;;;1.67;;
32146;SDS011;32190;49.112;8.598;2023-06-26T02:07:25;2.05;;;1.80;;
32146;SDS011;32190;49.112;8.598;2023-06-26T02:13:16;2.20;;;2.00;;
32146;SDS011;32190;49.112;8.598;2023-06-26T02:19:07;1.83;;;1.73;;
32146;SDS011;32190;49.112;8.598;2023-06-26T02:24:57;1.95;;;1.85;;
32146;SDS011;32190;49.112;8.598;2023-06-26T02:30:48;1.60;;;1.50;;
32146;SDS011;32190;49.112;8.598;2023-06-26T02:36:38;1.98;;;1.88;;
32146;SDS011;32190;49.112;8.598;2023-06-26T02:42:31;1.95;;;1.85;;
32146;SDS011;32190;49.112;8.598;2023-06-26T02:48:22;1.95;;;1.85;;
32146;SDS011;32190;49.112;8.598;2023-06-26T02:54:13;2.15;;;1.98;;
32146;SDS011;32190;49.112;8.598;2023-06-26T03:00:03;2.03;;;1.92;;
32146;SDS011;32190;49.112;8.598;2023-06-26T03:05:58;2.05;;;1.95;;
32146;SDS011;32190;49.112;8.598;2023-06-26T03:11:48;2.22;;;2.05;;
32146;SDS011;32190;49.112;8.598;2023-06-26T03:17:39;1.80;;;1.70;;
32146;SDS011;32190;49.112;8.598;2023-06-26T03:23:30;1.92;;;1.70;;
32146;SDS011;32190;49.112;8.598;2023-06-26T03:29:20;1.98;;;1.88;;
32146;SDS011;32190;49.112;8.598;2023-06-26T03:35:11;3.15;;;2.08;;
32146;SDS011;32190;49.112;8.598;2023-06-26T03:41:01;2.17;;;1.98;;
32146;SDS011;32190;49.112;8.598;2023-06-26T03:46:52;2.20;;;2.00;;
32146;SDS011;32190;49.112;8.598;2023-06-26T03:52:43;2.33;;;1.88;;
32146;SDS011;32190;49.112;8.598;2023-06-26T03:58:34;1.63;;;1.52;;
32146;SDS011;32190;49.112;8.598;2023-06-26T04:04:25;2.67;;;2.47;;
32146;SDS011;32190;49.112;8.598;2023-06-26T04:10:15;2.90;;;2.05;;
32146;SDS011;32190;49.112;8.598;2023-06-26T04:16:06;3.05;;;2.72;;
32146;SDS011;32190;49.112;8.598;2023-06-26T04:21:57;2.70;;;2.50;;
32146;SDS011;32190;49.112;8.598;2023-06-26T04:27:48;2.03;;;1.90;;
32146;SDS011;32190;49.112;8.598;2023-06-26T04:33:38;2.20;;;2.00;;
32146;SDS011;32190;49.112;8.598;2023-06-26T04:39:29;2.50;;;2.30;;
32146;SDS011;32190;49.112;8.598;2023-06-26T04:45:20;2.30;;;2.10;;
32146;SDS011;32190;49.112;8.598;2023-06-26T04:51:11;2.35;;;2.15;;
32146;SDS011;32190;49.112;8.598;2023-06-26T04:57:02;1.73;;;1.63;;
32146;SDS011;32190;49.112;8.598;2023-06-26T05:02:52;1.83;;;1.73;;
32146;SDS011;32190;49.112;8.598;2023-06-26T05:08:50;2.03;;;1.92;;
32146;SDS011;32190;49.112;8.598;2023-06-26T05:14:40;2.15;;;2.05;;
32146;SDS011;32190;49.112;8.598;2023-06-26T05:20:31;2.70;;;1.80;;
32146;SDS011;32190;49.112;8.598;2023-06-26T05:26:22;2.40;;;2.28;;
32146;SDS011;32190;49.112;8.598;2023-06-26T05:32:13;1.73;;;1.63;;
32146;SDS011;32190;49.112;8.598;2023-06-26T05:38:07;1.48;;;1.42;;
32146;SDS011;32190;49.112;8.598;2023-06-26T05:43:58;2.10;;;2.00;;
32146;SDS011;32190;49.112;8.598;2023-06-26T05:49:49;1.88;;;1.77;;
32146;SDS011;32190;49.112;8.598;2023-06-26T05:55:40;2.17;;;2.00;;
32146;SDS011;32190;49.112;8.598;2023-06-26T06:01:32;1.25;;;1.25;;
32146;SDS011;32190;49.112;8.598;2023-06-26T06:07:24;2.17;;;2.00;;
32146;SDS011;32190;49.112;8.598;2023-06-26T06:13:14;1.90;;;1.80;;
32146;SDS011;32190;49.112;8.598;2023-06-26T06:19:05;2.28;;;2.13;;
32146;SDS011;32190;49.112;8.598;2023-06-26T06:24:57;1.85;;;1.75;;
32146;SDS011;32190;49.112;8.598;2023-06-26T06:30:48;1.95;;;1.85;;
32146;SDS011;32190;49.112;8.598;2023-06-26T06:36:39;2.35;;;1.70;;
32146;SDS011;32190;49.112;8.598;2023-06-26T06:42:29;1.98;;;1.88;;
32146;SDS011;32190;49.112;8.598;2023-06-26T06:48:20;2.33;;;2.15;;
32146;SDS011;32190;49.112;8.598;2023-06-26T06:54:11;2.28;;;2.10;;
32146;SDS011;32190;49.112;8.598;2023-06-26T07:00:04;2.00;;;1.90;;
32146;SDS011;32190;49.112;8.598;2023-06-26T07:05:58;2.28;;;2.08;;
32146;SDS011;32190;49.112;8.598;2023-06-26T07:11:48;2.78;;;2.47;;
32146;SDS011;32190;49.112;8.598;2023-06-26T07:17:39;1.67;;;1.55;;
32146;SDS011;32190;49.112;8.598;2023-06-26T07:23:30;2.65;;;1.83;;
32146;SDS011;32190;49.112;8.598;2023-06-26T07:29:20;2.38;;;2.10;;
32146;SDS011;32190;49.112;8.598;2023-06-26T07:35:11;2.08;;;1.98;;
32146;SDS011;32190;49.112;8.598;2023-06-26T07:41:01;1.63;;;1.52;;
32146;SDS011;32190;49.112;8.598;2023-06-26T07:46:52;1.80;;;1.70;;
32146;SDS011;32190;49.112;8.598;2023-06-26T07:52:42;1.83;;;1.73;;
32146;SDS011;32190;49.112;8.598;2023-06-26T07:58:33;2.30;;;2.10;;
32146;SDS011;32190;49.112;8.598;2023-06-26T08:04:24;1.98;;;1.88;;
32146;SDS011;32190;49.112;8.598;2023-06-26T08:10:16;1.90;;;1.75;;
32146;SDS011;32190;49.112;8.598;2023-06-26T08:16:07;1.85;;;1.75;;
32146;SDS011;32190;49.112;8.598;2023-06-26T08:21:57;1.80;;;1.70;;
32146;SDS011;32190;49.112;8.598;2023-06-26T08:27:48;2.40;;;2.30;;
32146;SDS011;32190;49.112;8.598;2023-06-26T08:33:38;1.77;;;1.67;;
32146;SDS011;32190;49.112;8.598;2023-06-26T08:39:29;1.98;;;1.88;;
32146;SDS011;32190;49.112;8.598;2023-06-26T08:45:19;1.70;;;1.60;;
32146;SDS011;32190;49.112;8.598;2023-06-26T08:51:12;1.50;;;1.40;;
32146;SDS011;32190;49.112;8.598;2023-06-26T08:57:04;2.58;;;2.38;;
32146;SDS011;32190;49.112;8.598;2023-06-26T09:02:57;2.50;;;2.30;;
32146;SDS011;32190;49.112;8.598;2023-06-26T09:08:48;2.40;;;2.20;;
32146;SDS011;32190;49.112;8.598;2023-06-26T09:14:38;2.03;;;1.92;;
32146;SDS011;32190;49.112;8.598;2023-06-26T09:20:29;2.58;;;2.10;;
32146;SDS011;32190;49.112;8.598;2023-06-26T09:26:23;2.25;;;1.80;;
32146;SDS011;32190;49.112;8.598;2023-06-26T09:32:13;2.30;;;2.20;;
32146;SDS011;32190;49.112;8.598;2023-06-26T09:38:04;2.45;;;2.25;;
32146;SDS011;32190;49.112;8.598;2023-06-26T09:43:56;2.17;;;2.08;;
32146;SDS011;32190;49.112;8.598;2023-06-26T09:49:50;1.73;;;1.63;;
32146;SDS011;32190;49.112;8.598;2023-06-26T09:55:42;2.45;;;2.20;;
32146;SDS011;32190;49.112;8.598;2023-06-26T10:01:40;1.90;;;1.80;;
32146;SDS011;32190;49.112;8.598;2023-06-26T10:07:31;2.13;;;1.90;;
32146;SDS011;32190;49.112;8.598;2023-06-26T10:13:24;1.98;;;1.88;;
32146;SDS011;32190;49.112;8.598;2023-06-26T10:19:20;2.15;;;2.03;;
32146;SDS011;32190;49.112;8.598;2023-06-26T10:25:16;1.90;;;1.70;;
32146;SDS011;32190;49.112;8.598;2023-06-26T10:31:09;2.95;;;2.25;;
32146;SDS011;32190;49.112;8.598;2023-06-26T10:37:01;2.22;;;2.10;;
32146;SDS011;32190;49.112;8.598;2023-06-26T10:43:07;2.00;;;1.90;;
32146;SDS011;32190;49.112;8.598;2023-06-26T10:48:59;3.47;;;2.30;;
32146;SDS011;32190;49.112;8.598;2023-06-26T10:54:50;3.53;;;2.05;;
32146;SDS011;32190;49.112;8.598;2023-06-26T11:00:49;1.85;;;1.75;;
32146;SDS011;32190;49.112;8.598;2023-06-26T11:06:40;1.93;;;1.83;;
32146;SDS011;32190;49.112;8.598;2023-06-26T11:12:43;1.95;;;1.73;;
32146;SDS011;32190;49.112;8.598;2023-06-26T11:18:38;1.95;;;1.85;;
32146;SDS011;32190;49.112;8.598;2023-06-26T11:24:28;2.13;;;1.92;;
32146;SDS011;32190;49.112;8.598;2023-06-26T11:30:24;1.98;;;1.83;;
32146;SDS011;32190;49.112;8.598;2023-06-26T11:36:15;1.88;;;1.77;;
32146;SDS011;32190;49.112;8.598;2023-06-26T11:42:06;1.98;;;1.88;;
32146;SDS011;32190;49.112;8.598;2023-06-26T11:47:57;1.67;;;1.58;;
32146;SDS011;32190;49.112;8.598;2023-06-26T11:53:48;2.30;;;2.00;;
32146;SDS011;32190;49.112;8.598;2023-06-26T11:59:53;2.17;;;1.95;;
32146;SDS011;32190;49.112;8.598;2023-06-26T12:05:43;2.92;;;2.38;;
32146;SDS011;32190;49.112;8.598;2023-06-26T12:11:35;2.05;;;1.95;;
32146;SDS011;32190;49.112;8.598;2023-06-26T12:17:28;1.63;;;1.52;;
32146;SDS011;32190;49.112;8.598;2023-06-26T12:23:18;1.95;;;1.77;;
32146;SDS011;32190;49.112;8.598;2023-06-26T12:29:10;2.53;;;1.65;;
32146;SDS011;32190;49.112;8.598;2023-06-26T12:35:03;1.52;;;1.42;;
32146;SDS011;32190;49.112;8.598;2023-06-26T12:40:56;1.48;;;1.38;;
32146;SDS011;32190;49.112;8.598;2023-06-26T12:46:50;1.40;;;1.30;;
32146;SDS011;32190;49.112;8.598;2023-06-26T12:52:43;1.38;;;1.27;;
32146;SDS011;32190;49.112;8.598;2023-06-26T12:58:34;2.85;;;1.40;;
32146;SDS011;32190;49.112;8.598;2023-06-26T13:04:26;1.35;;;1.30;;
32146;SDS011;32190;49.112;8.598;2023-06-26T13:10:17;1.02;;;1.02;;
32146;SDS011;32190;49.112;8.598;2023-06-26T13:16:08;1.25;;;1.25;;
32146;SDS011;32190;49.112;8.598;2023-06-26T13:21:58;1.75;;;1.65;;
32146;SDS011;32190;49.112;8.598;2023-06-26T13:27:50;1.17;;;1.17;;
32146;SDS011;32190;49.112;8.598;2023-06-26T13:33:40;2.08;;;1.90;;
32146;SDS011;32190;49.112;8.598;2023-06-26T13:39:31;1.90;;;1.60;;
32146;SDS011;32190;49.112;8.598;2023-06-26T13:45:21;3.78;;;1.75;;
32146;SDS011;32190;49.112;8.598;2023-06-26T13:51:12;1.80;;;1.67;;
32146;SDS011;32190;49.112;8.598;2023-06-26T13:57:03;1.80;;;1.70;;
32146;SDS011;32190;49.112;8.598;2023-06-26T14:02:55;3.15;;;1.83;;
32146;SDS011;32190;49.112;8.598;2023-06-26T14:08:46;4.95;;;2.22;;
32146;SDS011;32190;49.112;8.598;2023-06-26T14:14:36;2.85;;;2.65;;
32146;SDS011;32190;49.112;8.598;2023-06-26T14:20:27;2.65;;;2.45;;
32146;SDS011;32190;49.112;8.598;2023-06-26T14:26:18;3.15;;;2.80;;
32146;SDS011;32190;49.112;8.598;2023-06-26T14:32:09;2.17;;;2.08;;
32146;SDS011;32190;49.112;8.598;2023-06-26T14:38:00;3.03;;;2.78;;
32146;SDS011;32190;49.112;8.598;2023-06-26T14:43:51;2.55;;;2.35;;
32146;SDS011;32190;49.112;8.598;2023-06-26T14:49:42;4.18;;;2.40;;
32146;SDS011;32190;49.112;8.598;2023-06-26T14:55:33;1.65;;;1.55;;
32146;SDS011;32190;49.112;8.598;2023-06-26T15:01:23;1.40;;;1.30;;
32146;SDS011;32190;49.112;8.598;2023-06-26T15:07:14;1.10;;;1.10;;
32146;SDS011;32190;49.112;8.598;2023-06-26T15:13:04;1.17;;;1.08;;
32146;SDS011;32190;49.112;8.598;2023-06-26T15:18:56;1.30;;;1.20;;
32146;SDS011;32190;49.112;8.598;2023-06-26T15:24:46;1.15;;;0.75;;
32146;SDS011;32190;49.112;8.598;2023-06-26T15:30:37;0.70;;;0.70;;
32146;SDS011;32190;49.112;8.598;2023-06-26T15:36:27;0.47;;;0.47;;
32146;SDS011;32190;49.112;8.598;2023-06-26T15:42:18;1.13;;;0.75;;
32146;SDS011;32190;49.112;8.598;2023-06-26T15:48:09;2.30;;;0.60;;
32146;SDS011;32190;49.112;8.598;2023-06-26T15:53:59;1.10;;;0.80;;
32146;SDS011;32190;49.112;8.598;2023-06-26T15:59:50;0.70;;;0.68;;
32146;SDS011;32190;49.112;8.598;2023-06-26T16:05:41;0.85;;;0.77;;
32146;SDS011;32190;49.112;8.598;2023-06-26T16:11:32;1.35;;;0.60;;
32146;SDS011;32190;49.112;8.598;2023-06-26T16:17:22;0.70;;;0.60;;
32146;SDS011;32190;49.112;8.598;2023-06-26T16:23:13;1.27;;;1.00;;
32146;SDS011;32190;49.112;8.598;2023-06-26T16:29:04;1.13;;;0.88;;
32146;SDS011;32190;49.112;8.598;2023-06-26T16:34:55;1.30;;;0.68;;
32146;SDS011;32190;49.112;8.598;2023-06-26T16:40:45;0.75;;;0.50;;
32146;SDS011;32190;49.112;8.598;2023-06-26T16:46:36;2.67;;;0.70;;
32146;SDS011;32190;49.112;8.598;2023-06-26T16:52:27;1.40;;;0.80;;
32146;SDS011;32190;49.112;8.598;2023-06-26T16:58:17;0.52;;;0.52;;
32146;SDS011;32190;49.112;8.598;2023-06-26T17:04:08;0.43;;;0.43;;
32146;SDS011;32190;49.112;8.598;2023-06-26T17:09:59;0.50;;;0.50;;
32146;SDS011;32190;49.112;8.598;2023-06-26T17:15:49;0.55;;;0.55;;
32146;SDS011;32190;49.112;8.598;2023-06-26T17:21:40;0.95;;;0.50;;
32146;SDS011;32190;49.112;8.598;2023-06-26T17:27:31;0.43;;;0.43;;
32146;SDS011;32190;49.112;8.598;2023-06-26T17:33:22;0.50;;;0.50;;
32146;SDS011;32190;49.112;8.598;2023-06-26T17:39:12;0.60;;;0.43;;
32146;SDS011;32190;49.112;8.598;2023-06-26T17:45:03;0.57;;;0.50;;
32146;SDS011;32190;49.112;8.598;2023-06-26T17:50:54;0.40;;;0.40;;
32146;SDS011;32190;49.112;8.598;2023-06-26T17:56:45;3.30;;;0.60;;
32146;SDS011;32190;49.112;8.598;2023-06-26T18:02:36;0.88;;;0.55;;
32146;SDS011;32190;49.112;8.598;2023-06-26T18:08:30;0.35;;;0.32;;
32146;SDS011;32190;49.112;8.598;2023-06-26T18:14:21;1.67;;;0.52;;
32146;SDS011;32190;49.112;8.598;2023-06-26T18:20:12;1.00;;;0.55;;
32146;SDS011;32190;49.112;8.598;2023-06-26T18:26:02;1.70;;;0.77;;
32146;SDS011;32190;49.112;8.598;2023-06-26T18:31:53;0.40;;;0.40;;
32146;SDS011;32190;49.112;8.598;2023-06-26T18:37:44;0.60;;;0.52;;
32146;SDS011;32190;49.112;8.598;2023-06-26T18:43:35;0.40;;;0.40;;
32146;SDS011;32190;49.112;8.598;2023-06-26T18:49:28;0.75;;;0.70;;
32146;SDS011;32190;49.112;8.598;2023-06-26T18:55:19;0.40;;;0.40;;
32146;SDS011;32190;49.112;8.598;2023-06-26T19:01:10;0.35;;;0.35;;
32146;SDS011;32190;49.112;8.598;2023-06-26T19:07:01;0.40;;;0.40;;
32146;SDS011;32190;49.112;8.598;2023-06-26T19:12:51;0.80;;;0.47;;
32146;SDS011;32190;49.112;8.598;2023-06-26T19:18:43;0.47;;;0.47;;
32146;SDS011;32190;49.112;8.598;2023-06-26T19:24:34;1.13;;;0.50;;
32146;SDS011;32190;49.112;8.598;2023-06-26T19:30:24;0.50;;;0.40;;
32146;SDS011;32190;49.112;8.598;2023-06-26T19:36:15;0.32;;;0.20;;
32146;SDS011;32190;49.112;8.598;2023-06-26T19:42:06;0.52;;;0.40;;
32146;SDS011;32190;49.112;8.598;2023-06-26T19:47:57;0.77;;;0.50;;
32146;SDS011;32190;49.112;8.598;2023-06-26T19:53:48;0.22;;;0.22;;
32146;SDS011;32190;49.112;8.598;2023-06-26T19:59:38;0.30;;;0.30;;
32146;SDS011;32190;49.112;8.598;2023-06-26T20:05:29;0.45;;;0.40;;
32146;SDS011;32190;49.112;8.598;2023-06-26T20:11:20;1.30;;;0.50;;
32146;SDS011;32190;49.112;8.598;2023-06-26T20:17:11;1.10;;;0.50;;
32146;SDS011;32190;49.112;8.598;2023-06-26T20:23:01;0.80;;;0.60;;
32146;SDS011;32190;49.112;8.598;2023-06-26T20:28:53;4.03;;;0.60;;
32146;SDS011;32190;49.112;8.598;2023-06-26T20:34:43;0.70;;;0.43;;
32146;SDS011;32190;49.112;8.598;2023-06-26T20:40:34;2.03;;;0.55;;
32146;SDS011;32190;49.112;8.598;2023-06-26T20:46:24;0.30;;;0.30;;
32146;SDS011;32190;49.112;8.598;2023-06-26T20:52:21;1.00;;;0.50;;
32146;SDS011;32190;49.112;8.598;2023-06-26T20:58:15;1.05;;;0.40;;
32146;SDS011;32190;49.112;8.598;2023-06-26T21:04:05;0.68;;;0.45;;
32146;SDS011;32190;49.112;8.598;2023-06-26T21:09:57;0.30;;;0.30;;
32146;SDS011;32190;49.112;8.598;2023-06-26T21:15:49;0.50;;;0.45;;
32146;SDS011;32190;49.112;8.598;2023-06-26T21:21:39;0.57;;;0.38;;
32146;SDS011;32190;49.112;8.598;2023-06-26T21:27:30;0.90;;;0.57;;
32146;SDS011;32190;49.112;8.598;2023-06-26T21:33:21;1.17;;;0.30;;
32146;SDS011;32190;49.112;8.598;2023-06-26T21:39:11;0.70;;;0.50;;
32146;SDS011;32190;49.112;8.598;2023-06-26T21:45:02;0.77;;;0.60;;
32146;SDS011;32190;49.112;8.598;2023-06-26T21:50:53;1.50;;;0.45;;
32146;SDS011;32190;49.112;8.598;2023-06-26T21:56:44;0.75;;;0.40;;
32146;SDS011;32190;49.112;8.598;2023-06-26T22:02:34;0.95;;;0.50;;
32146;SDS011;32190;49.112;8.598;2023-06-26T22:08:25;0.50;;;0.50;;
32146;SDS011;32190;49.112;8.598;2023-06-26T22:14:16;0.45;;;0.45;;
32146;SDS011;32190;49.112;8.598;2023-06-26T22:20:06;0.50;;;0.40;;
32146;SDS011;32190;49.112;8.598;2023-06-26T22:25:59;1.38;;;0.50;;
32146;SDS011;32190;49.112;8.598;2023-06-26T22:31:49;0.32;;;0.32;;
32146;SDS011;32190;49.112;8.598;2023-06-26T22:37:40;1.15;;;0.55;;
32146;SDS011;32190;49.112;8.598;2023-06-26T22:43:31;0.40;;;0.40;;
32146;SDS011;32190;49.112;8.598;2023-06-26T22:49:23;0.85;;;0.40;;
32146;SDS011;32190;49.112;8.598;2023-06-26T22:55:14;0.43;;;0.43;;
32146;SDS011;32190;49.112;8.598;2023-06-26T23:01:04;0.77;;;0.55;;
32146;SDS011;32190;49.112;8.598;2023-06-26T23:06:55;0.70;;;0.40;;
32146;SDS011;32190;49.112;8.598;2023-06-26T23:12:47;1.00;;;0.50;;
32146;SDS011;32190;49.112;8.598;2023-06-26T23:18:37;0.90;;;0.70;;
32146;SDS011;32190;49.112;8.598;2023-06-26T23:24:28;0.55;;;0.35;;
32146;SDS011;32190;49.112;8.598;2023-06-26T23:30:23;0.38;;;0.38;;
32146;SDS011;32190;49.112;8.598;2023-06-26T23:36:13;0.77;;;0.70;;
32146;SDS011;32190;49.112;8.598;2023-06-26T23:42:05;0.75;;;0.52;;
32146;SDS011;32190;49.112;8.598;2023-06-26T23:47:57;0.93;;;0.60;;
32146;SDS011;32190;49.112;8.598;2023-06-26T23:53:47;0.40;;;0.40;;
32146;SDS011;32190;49.112;8.598;2023-06-26T23:59:38;0.73;;;0.60;;
